메인 페이지
METAR-TAF:

METAR-TAF

공항 :

보고타, 콜롬비아

엘도라도 국제공항

위도: 04-43N, 경도: 074-09W, 고도: 2547m

현재 날씨관측

예보는 52분 전, 18:00시(UTC)에 발표되었습니다.
9kt
온도 18°C
습도 42%
기압 1026 hPa
시정 10km 이상
고도 2000ft 상공 구름 많음

METAR: SKBO 161800Z 17009KT 9999 BKN020 18/05 A3029

시각: 13:52 (18:52 UTC)

예보

예보는 1 시간 52분 전, 17:00시(UTC)에 발표되었습니다.
예보 대상 시간: 16일 18시부터 17일 18시까지 (UTC)
12kt
시정 10km 이상
고도 2000ft 상공 구름 많음
고도 20000ft 상공 구름 보통
일시적
16일 20시부터 17일 01시까지 (UTC)
시정: 7000m
고도 1700ft 상공 구름 보통, 타워링 적운.
고도 7000ft 상공 구름 많음
이슬비
전환 중
17일 02시부터 17일 04시까지 (UTC)
여러 방향의 바람 2kt
일시적
17일 09시부터 17일 12시까지 (UTC)
시정: 8000m
고도 1700ft 상공 구름 조금
시계 내 안개
전환 중
17일 14시부터 17일 16시까지 (UTC)
서남서10kt
고도 2000ft 상공 구름 보통

TAF: SKBO 161700Z 1618/1718 28012KT 9999 BKN020 SCT200 TEMPO 1620/1701 7000 DZ SCT017TCU BKN070 BECMG 1702/1704 VRB02KT TEMPO 1709/1712 8000 VCFG FEW017 BECMG 1714/1716 25010KT SCT020 TX19/1618Z TN08/1711Z

4,000개 이상의 공항 관측 자료 및 예보 (METAR 및 TAF 보고).

지도상에서 검색 가능한 기상관측소가 노란 점과 빨간 점으로 표시되어 있습니다.

기상관측소 명을 보려면 표시 위로 마우스를 이동하세요.

날씨 관측과 예보를 보려면 클릭하세요.

지도 변경 : 확대하려면 엑스 표시가 있는 녹색 버튼, 축소하려면 빼기 표시가 있는 녹색 버튼, 다음 페이지의 지도를 보려면 녹색 화살표를 클릭하세요.


METAR-TAF: